createdAt,value
2023-03-28T00:00:41.577Z,2.61
2023-03-28T00:01:52.056Z,2.61
2023-03-28T00:02:54.951Z,2.61
2023-03-28T00:03:57.884Z,2.60
2023-03-28T00:05:00.825Z,2.59
2023-03-28T00:06:09.659Z,2.58
2023-03-28T00:07:12.938Z,2.58
2023-03-28T00:08:17.848Z,2.56
2023-03-28T00:09:20.963Z,2.54
2023-03-28T00:10:24.080Z,2.54
2023-03-28T00:11:27.112Z,2.53
2023-03-28T00:12:30.025Z,2.53
2023-03-28T00:13:33.740Z,2.52
2023-03-28T00:14:38.352Z,2.50
2023-03-28T00:15:42.728Z,2.50
2023-03-28T00:16:45.844Z,2.50
2023-03-28T00:17:49.341Z,2.48
2023-03-28T00:18:52.744Z,2.48
2023-03-28T00:19:55.593Z,2.48
2023-03-28T00:20:58.955Z,2.49
2023-03-28T00:22:02.012Z,2.50
2023-03-28T00:23:04.976Z,2.50
2023-03-28T00:24:14.014Z,2.51
2023-03-28T00:25:18.293Z,2.52
2023-03-28T00:26:24.675Z,2.54
2023-03-28T00:27:27.760Z,2.55
2023-03-28T00:28:30.589Z,2.58
2023-03-28T00:29:34.363Z,2.58
2023-03-28T00:30:37.614Z,2.60
2023-03-28T00:31:40.715Z,2.62
2023-03-28T00:32:43.733Z,2.63
2023-03-28T00:33:47.844Z,2.66
2023-03-28T00:34:51.155Z,2.68
2023-03-28T00:35:56.501Z,2.70
2023-03-28T00:37:02.599Z,2.72
2023-03-28T00:38:05.604Z,2.74
2023-03-28T00:39:12.085Z,2.76
2023-03-28T00:40:14.955Z,2.79
2023-03-28T00:41:18.559Z,2.81
2023-03-28T00:42:23.060Z,2.83
2023-03-28T00:43:45.924Z,2.84
2023-03-28T00:44:52.751Z,2.86
2023-03-28T00:46:06.590Z,2.87
2023-03-28T00:47:33.536Z,2.89
2023-03-28T00:48:38.154Z,2.90
2023-03-28T00:49:41.602Z,2.92
2023-03-28T00:50:48.788Z,2.92
2023-03-28T00:51:59.321Z,2.93
2023-03-28T00:53:15.457Z,2.94
2023-03-28T00:54:20.454Z,2.94
2023-03-28T00:55:36.735Z,2.95
2023-03-28T00:56:44.450Z,2.94
2023-03-28T00:57:49.142Z,2.93
2023-03-28T00:58:52.578Z,2.93
2023-03-28T00:59:55.963Z,2.93
2023-03-28T01:00:59.345Z,2.93
2023-03-28T01:02:02.610Z,2.93
2023-03-28T01:03:06.884Z,2.93
2023-03-28T01:04:10.411Z,2.93
2023-03-28T01:05:13.909Z,2.93
2023-03-28T01:06:17.073Z,2.93
2023-03-28T01:07:20.714Z,2.92
2023-03-28T01:08:30.361Z,2.90
2023-03-28T01:09:33.780Z,2.90
2023-03-28T01:10:36.773Z,2.89
2023-03-28T01:11:43.895Z,2.88
2023-03-28T01:12:48.797Z,2.88
2023-03-28T01:13:55.770Z,2.88
2023-03-28T01:15:04.584Z,2.88
2023-03-28T01:16:20.193Z,2.87
2023-03-28T01:17:25.661Z,2.86
2023-03-28T01:18:30.346Z,2.84
2023-03-28T01:20:13.439Z,2.83
2023-03-28T01:21:48.974Z,2.80
2023-03-28T01:23:34.183Z,2.78
2023-03-28T01:25:03.753Z,2.76
2023-03-28T01:26:39.514Z,2.75
2023-03-28T01:28:02.454Z,2.73
2023-03-28T01:29:39.630Z,2.74
2023-03-28T01:31:42.270Z,2.75
2023-03-28T01:33:14.094Z,2.70
2023-03-28T01:34:35.554Z,2.70
2023-03-28T01:35:57.126Z,2.71
2023-03-28T01:37:24.031Z,2.72
2023-03-28T01:38:37.133Z,2.72
2023-03-28T01:39:57.061Z,2.74
2023-03-28T01:41:17.877Z,2.76
2023-03-28T01:42:29.408Z,2.77
2023-03-28T01:43:36.882Z,2.79
2023-03-28T01:44:52.206Z,2.80
2023-03-28T01:46:01.225Z,2.82
2023-03-28T01:47:25.333Z,2.84
2023-03-28T01:48:54.488Z,2.87
2023-03-28T01:50:18.386Z,2.86
2023-03-28T01:51:57.563Z,2.86
2023-03-28T01:53:12.269Z,2.88
2023-03-28T01:54:29.106Z,2.90
2023-03-28T01:55:41.475Z,2.92
2023-03-28T01:56:54.746Z,2.94
2023-03-28T01:58:06.704Z,2.93
2023-03-28T01:59:47.932Z,2.93
2023-03-28T02:01:22.993Z,2.93
2023-03-28T02:02:39.252Z,2.95
2023-03-28T02:04:20.790Z,2.96
2023-03-28T02:05:35.063Z,2.96
2023-03-28T02:06:41.861Z,2.97
2023-03-28T02:07:52.289Z,2.97
2023-03-28T02:09:02.137Z,2.96
2023-03-28T02:10:37.140Z,2.93
2023-03-28T02:12:08.536Z,2.91
2023-03-28T02:13:41.253Z,2.86
2023-03-28T02:15:13.929Z,2.86
2023-03-28T02:16:38.814Z,2.81
2023-03-28T02:18:20.585Z,2.79
2023-03-28T02:19:33.874Z,2.78
2023-03-28T02:21:01.588Z,2.77
2023-03-28T02:22:24.536Z,2.73
2023-03-28T02:23:51.825Z,2.69
2023-03-28T02:25:19.213Z,2.64
2023-03-28T02:26:33.553Z,2.63
2023-03-28T02:28:00.313Z,2.60
2023-03-28T02:29:28.447Z,2.52
2023-03-28T02:30:44.931Z,2.53
2023-03-28T02:31:50.016Z,2.54
2023-03-28T02:32:59.159Z,2.51
2023-03-28T02:34:02.341Z,2.48
2023-03-28T02:35:07.362Z,2.43
2023-03-28T02:36:32.908Z,2.39
2023-03-28T02:37:49.522Z,2.35
2023-03-28T02:38:55.481Z,2.31
2023-03-28T02:40:39.817Z,2.28
2023-03-28T02:42:16.599Z,2.24
2023-03-28T02:43:25.252Z,2.19
2023-03-28T02:44:47.071Z,2.18
2023-03-28T02:46:10.466Z,2.16
2023-03-28T02:47:31.784Z,2.14
2023-03-28T02:49:11.302Z,2.14
2023-03-28T02:50:32.301Z,2.09
2023-03-28T02:51:46.532Z,2.09
2023-03-28T02:53:27.333Z,2.08
2023-03-28T02:54:33.236Z,2.02
2023-03-28T02:56:24.218Z,1.98
2023-03-28T02:57:53.902Z,1.92
2023-03-28T02:59:17.883Z,1.89
2023-03-28T03:00:22.719Z,1.87
2023-03-28T03:01:29.412Z,1.86
2023-03-28T03:02:33.551Z,1.85
2023-03-28T03:03:37.813Z,1.85
2023-03-28T03:04:40.839Z,1.87
2023-03-28T03:05:43.910Z,1.87
2023-03-28T03:06:48.453Z,1.88
2023-03-28T03:07:52.176Z,1.87
2023-03-28T03:08:55.159Z,1.87
2023-03-28T03:09:59.220Z,1.88
2023-03-28T03:11:02.092Z,1.88
2023-03-28T03:12:05.419Z,1.89
2023-03-28T03:13:08.383Z,1.89
2023-03-28T03:14:12.346Z,1.90
2023-03-28T03:15:17.235Z,1.93
2023-03-28T03:16:33.397Z,1.95
2023-03-28T03:17:36.838Z,1.96
2023-03-28T03:18:41.074Z,1.99
2023-03-28T03:19:44.014Z,2.02
2023-03-28T03:20:47.064Z,2.04
2023-03-28T03:21:50.096Z,2.04
2023-03-28T03:22:54.806Z,2.06
2023-03-28T03:23:57.722Z,2.08
2023-03-28T03:25:06.721Z,2.08
2023-03-28T03:26:12.119Z,2.10
2023-03-28T03:27:22.134Z,2.11
2023-03-28T03:28:25.224Z,2.13
2023-03-28T03:29:38.906Z,2.13
2023-03-28T03:30:43.438Z,2.12
2023-03-28T03:32:05.562Z,2.08
2023-03-28T03:33:17.071Z,2.07
2023-03-28T03:34:21.081Z,2.07
2023-03-28T03:35:33.488Z,2.06
2023-03-28T03:36:40.696Z,2.06
2023-03-28T03:37:43.732Z,2.06
2023-03-28T03:38:47.679Z,2.05
2023-03-28T03:39:54.344Z,2.06
2023-03-28T03:41:03.168Z,2.04
2023-03-28T03:42:06.367Z,2.04
2023-03-28T03:43:09.558Z,2.03
2023-03-28T03:44:13.370Z,2.03
2023-03-28T03:45:16.260Z,2.03
2023-03-28T03:46:20.157Z,2.02
2023-03-28T03:47:23.803Z,2.03
2023-03-28T03:48:27.051Z,2.04
2023-03-28T03:49:33.377Z,2.04
2023-03-28T03:50:39.480Z,2.05
2023-03-28T03:51:50.928Z,2.03
2023-03-28T03:52:53.899Z,2.02
2023-03-28T03:54:01.133Z,1.99
2023-03-28T03:55:11.759Z,1.99
2023-03-28T03:56:16.654Z,1.99
2023-03-28T03:57:30.204Z,2.00
2023-03-28T03:58:36.425Z,1.99
2023-03-28T03:59:42.549Z,1.98
2023-03-28T04:00:49.053Z,1.95
2023-03-28T04:02:12.237Z,1.91
2023-03-28T04:03:35.148Z,1.85
2023-03-28T04:04:40.676Z,1.84
2023-03-28T04:05:46.245Z,1.81
2023-03-28T04:06:50.042Z,1.77
2023-03-28T04:07:52.887Z,1.75
2023-03-28T04:09:02.926Z,1.74
2023-03-28T04:10:22.030Z,1.73
2023-03-28T04:11:25.268Z,1.73
2023-03-28T04:12:28.273Z,1.73
2023-03-28T04:13:31.843Z,1.72
2023-03-28T04:14:36.988Z,1.70
2023-03-28T04:16:00.026Z,1.69
2023-03-28T04:17:16.199Z,1.66
2023-03-28T04:18:20.586Z,1.66
2023-03-28T04:19:25.792Z,1.65
2023-03-28T04:20:29.825Z,1.64
2023-03-28T04:21:48.144Z,1.63
2023-03-28T04:22:51.554Z,1.63
2023-03-28T04:23:55.383Z,1.63
2023-03-28T04:25:03.237Z,1.62
2023-03-28T04:26:20.679Z,1.60
2023-03-28T04:27:31.660Z,1.59
2023-03-28T04:28:34.714Z,1.57
2023-03-28T04:29:41.846Z,1.54
2023-03-28T04:31:00.501Z,1.55
2023-03-28T04:32:22.226Z,1.54
2023-03-28T04:33:38.053Z,1.53
2023-03-28T04:34:41.141Z,1.52
2023-03-28T04:35:51.342Z,1.52
2023-03-28T04:36:57.007Z,1.51
2023-03-28T04:38:00.182Z,1.51
2023-03-28T04:39:03.968Z,1.51
2023-03-28T04:40:28.136Z,1.49
2023-03-28T04:41:55.715Z,1.45
2023-03-28T04:43:29.203Z,1.42
2023-03-28T04:44:32.323Z,1.37
2023-03-28T04:45:39.204Z,1.36
2023-03-28T04:46:51.195Z,1.34
2023-03-28T04:47:54.387Z,1.33
2023-03-28T04:48:57.951Z,1.29
2023-03-28T04:50:04.037Z,1.26
2023-03-28T04:51:10.255Z,1.24
2023-03-28T04:52:14.867Z,1.23
2023-03-28T04:53:19.939Z,1.21
2023-03-28T04:54:42.808Z,1.22
2023-03-28T04:55:51.510Z,1.25
2023-03-28T04:56:58.178Z,1.25
2023-03-28T04:58:11.303Z,1.24
2023-03-28T04:59:17.657Z,1.25
2023-03-28T05:00:22.477Z,1.27
2023-03-28T05:02:00.649Z,1.26
2023-03-28T05:03:25.088Z,1.28
2023-03-28T05:04:35.411Z,1.31
2023-03-28T05:05:42.151Z,1.31
2023-03-28T05:06:50.166Z,1.32
2023-03-28T05:07:54.170Z,1.33
2023-03-28T05:08:57.753Z,1.36
2023-03-28T05:10:04.436Z,1.36
2023-03-28T05:11:11.640Z,1.38
2023-03-28T05:12:14.512Z,1.38
2023-03-28T05:13:36.081Z,1.40
2023-03-28T05:14:58.730Z,1.41
2023-03-28T05:16:01.700Z,1.45
2023-03-28T05:17:19.730Z,1.54
2023-03-28T05:18:36.016Z,1.66
2023-03-28T05:19:39.932Z,1.77
2023-03-28T05:20:47.903Z,1.86
2023-03-28T05:21:50.805Z,1.90
2023-03-28T05:22:54.114Z,1.94
2023-03-28T05:23:56.939Z,1.93
2023-03-28T05:25:00.449Z,1.97
2023-03-28T05:26:03.926Z,2.03
2023-03-28T05:27:08.533Z,2.09
2023-03-28T05:28:12.768Z,2.14
2023-03-28T05:29:27.853Z,2.17
2023-03-28T05:30:31.651Z,2.18
2023-03-28T05:31:35.725Z,2.19
2023-03-28T05:33:07.890Z,2.19
2023-03-28T05:34:11.169Z,2.18
2023-03-28T05:35:20.275Z,2.20
2023-03-28T05:36:23.892Z,2.23
2023-03-28T05:37:28.491Z,2.24
2023-03-28T05:38:33.288Z,2.23
2023-03-28T05:39:40.612Z,2.22
2023-03-28T05:40:43.569Z,2.24
2023-03-28T05:41:47.252Z,2.24
2023-03-28T05:42:50.823Z,2.22
2023-03-28T05:43:55.714Z,2.21
2023-03-28T05:45:12.673Z,2.19
2023-03-28T05:46:34.393Z,2.17
2023-03-28T05:47:37.695Z,2.19
2023-03-28T05:48:41.029Z,2.22
2023-03-28T05:49:44.091Z,2.26
2023-03-28T05:50:49.382Z,2.30
2023-03-28T05:51:52.494Z,2.33
2023-03-28T05:52:55.471Z,2.37
2023-03-28T05:53:58.954Z,2.44
2023-03-28T05:55:01.986Z,2.49
2023-03-28T05:56:08.118Z,2.55
2023-03-28T05:57:11.429Z,2.60
2023-03-28T05:58:15.139Z,2.63
2023-03-28T05:59:20.169Z,2.66
2023-03-28T06:00:23.603Z,2.68
2023-03-28T06:01:29.315Z,2.67
2023-03-28T06:02:34.313Z,2.69
2023-03-28T06:03:41.090Z,2.72
2023-03-28T06:04:44.981Z,2.71
2023-03-28T06:05:52.176Z,2.70
2023-03-28T06:06:57.185Z,2.70
2023-03-28T06:08:04.623Z,2.72
2023-03-28T06:09:07.560Z,2.75
2023-03-28T06:10:21.450Z,2.81
2023-03-28T06:11:36.906Z,2.87
2023-03-28T06:12:47.223Z,2.90
2023-03-28T06:13:50.411Z,2.88
2023-03-28T06:14:55.036Z,2.82
2023-03-28T06:16:11.538Z,2.76
2023-03-28T06:17:14.486Z,2.71
2023-03-28T06:18:25.943Z,2.66
2023-03-28T06:19:29.516Z,2.64
2023-03-28T06:20:32.619Z,2.66
2023-03-28T06:21:35.497Z,2.66
2023-03-28T06:22:41.598Z,2.67
2023-03-28T06:23:46.510Z,2.67
2023-03-28T06:25:09.882Z,2.67
2023-03-28T06:26:15.826Z,2.70
2023-03-28T06:27:19.016Z,2.76
2023-03-28T06:28:22.381Z,2.79
2023-03-28T06:29:43.246Z,2.85
2023-03-28T06:30:50.436Z,2.90
2023-03-28T06:31:53.867Z,2.94
2023-03-28T06:32:56.743Z,2.99
2023-03-28T06:33:59.839Z,3.05
2023-03-28T06:35:02.731Z,3.09
2023-03-28T06:36:06.089Z,3.11
2023-03-28T06:37:12.299Z,3.14
2023-03-28T06:38:41.420Z,3.14
2023-03-28T06:39:44.476Z,3.17
2023-03-28T06:40:47.544Z,3.27
2023-03-28T06:41:51.694Z,3.44
2023-03-28T06:43:01.247Z,3.55
2023-03-28T06:44:16.832Z,3.63
2023-03-28T06:45:31.438Z,3.66
2023-03-28T06:46:39.621Z,3.68
2023-03-28T06:47:42.554Z,3.69
2023-03-28T06:48:46.162Z,3.59
2023-03-28T06:50:04.427Z,3.36
2023-03-28T06:51:45.722Z,3.08
2023-03-28T06:52:48.741Z,2.94
2023-03-28T06:53:52.425Z,2.82
2023-03-28T06:55:00.487Z,2.73
2023-03-28T06:56:03.728Z,2.64
2023-03-28T06:57:06.826Z,2.59
2023-03-28T06:58:11.586Z,2.53
2023-03-28T06:59:21.466Z,2.54
2023-03-28T07:00:27.984Z,2.61
2023-03-28T07:01:49.665Z,2.74
2023-03-28T07:02:57.749Z,2.81
2023-03-28T07:04:02.480Z,2.85
2023-03-28T07:05:06.667Z,2.89
2023-03-28T07:06:10.768Z,2.92
2023-03-28T07:07:14.628Z,2.96
2023-03-28T07:08:18.431Z,3.01
2023-03-28T07:09:21.303Z,3.06
2023-03-28T07:10:30.515Z,3.10
2023-03-28T07:11:33.852Z,3.16
2023-03-28T07:12:36.955Z,3.21
2023-03-28T07:13:40.361Z,3.25
2023-03-28T07:14:46.971Z,3.27
2023-03-28T07:16:07.302Z,3.32
2023-03-28T07:17:11.865Z,3.44
2023-03-28T07:18:15.027Z,3.55
2023-03-28T07:19:18.482Z,3.59
2023-03-28T07:20:23.464Z,3.61
2023-03-28T07:21:26.682Z,3.60
2023-03-28T07:22:31.642Z,3.61
2023-03-28T07:23:34.593Z,3.57
2023-03-28T07:24:39.631Z,3.45
2023-03-28T07:25:45.268Z,3.30
2023-03-28T07:26:49.024Z,3.14
2023-03-28T07:27:52.619Z,3.01
2023-03-28T07:28:56.368Z,2.87
2023-03-28T07:30:00.487Z,2.81
2023-03-28T07:31:05.595Z,2.85
2023-03-28T07:32:09.982Z,2.93
2023-03-28T07:33:18.828Z,2.99
2023-03-28T07:34:26.866Z,3.02
2023-03-28T07:35:29.995Z,3.04
2023-03-28T07:36:33.061Z,3.06
2023-03-28T07:37:44.490Z,3.10
2023-03-28T07:39:06.114Z,3.15
2023-03-28T07:40:10.925Z,3.18
2023-03-28T07:41:15.653Z,3.21
2023-03-28T07:42:18.671Z,3.25
2023-03-28T07:43:21.564Z,3.30
2023-03-28T07:44:24.489Z,3.32
2023-03-28T07:45:27.613Z,3.31
2023-03-28T07:46:32.254Z,3.30
2023-03-28T07:47:35.174Z,3.32
2023-03-28T07:48:38.772Z,3.36
2023-03-28T07:49:42.146Z,3.35
2023-03-28T07:50:45.593Z,3.32
2023-03-28T07:51:52.613Z,3.35
2023-03-28T07:52:57.909Z,3.38
2023-03-28T07:54:01.960Z,3.43
2023-03-28T07:55:05.444Z,3.45
2023-03-28T07:56:12.195Z,3.46
2023-03-28T07:57:47.759Z,3.50
2023-03-28T07:59:14.824Z,3.52
2023-03-28T08:00:19.554Z,3.54
2023-03-28T08:01:26.390Z,3.58
2023-03-28T08:02:34.336Z,3.57
2023-03-28T08:03:37.820Z,3.53
2023-03-28T08:04:41.169Z,3.50
2023-03-28T08:05:51.634Z,3.46
2023-03-28T08:06:56.122Z,3.32
2023-03-28T08:07:59.506Z,3.13
2023-03-28T08:09:02.654Z,2.98
2023-03-28T08:10:09.975Z,2.83
2023-03-28T08:11:14.176Z,2.68
2023-03-28T08:12:17.230Z,2.56
2023-03-28T08:13:21.177Z,2.45
2023-03-28T08:14:24.795Z,2.35
2023-03-28T08:15:27.852Z,2.25
2023-03-28T08:16:31.465Z,2.19
2023-03-28T08:17:35.257Z,2.21
2023-03-28T08:18:38.261Z,2.28
2023-03-28T08:19:41.584Z,2.36
2023-03-28T08:20:51.759Z,2.41
2023-03-28T08:21:58.921Z,2.49
2023-03-28T08:23:03.119Z,2.59
2023-03-28T08:24:34.895Z,2.72
2023-03-28T08:25:46.457Z,2.88
2023-03-28T08:26:50.857Z,3.01
2023-03-28T08:27:54.073Z,3.11
2023-03-28T08:28:58.987Z,3.18
2023-03-28T08:30:02.304Z,3.17
2023-03-28T08:31:14.464Z,3.09
2023-03-28T08:32:18.088Z,2.98
2023-03-28T08:33:21.509Z,2.87
2023-03-28T08:34:24.501Z,2.77
2023-03-28T08:35:27.711Z,2.66
2023-03-28T08:36:32.813Z,2.59
2023-03-28T08:37:36.101Z,2.54
2023-03-28T08:38:39.007Z,2.46
2023-03-28T08:39:42.872Z,2.38
2023-03-28T08:40:57.864Z,2.31
2023-03-28T08:42:32.692Z,2.25
2023-03-28T08:44:17.048Z,2.20
2023-03-28T08:46:04.471Z,2.19
2023-03-28T08:47:16.337Z,2.21
2023-03-28T08:48:29.578Z,2.26
2023-03-28T08:49:44.917Z,2.40
2023-03-28T08:51:02.951Z,2.58
2023-03-28T08:52:06.644Z,2.75
2023-03-28T08:53:24.286Z,2.85
2023-03-28T08:54:38.844Z,2.92
2023-03-28T08:55:42.929Z,2.95
2023-03-28T08:57:00.906Z,2.95
2023-03-28T08:58:04.792Z,2.92
2023-03-28T08:59:13.057Z,2.88
2023-03-28T09:00:34.296Z,2.82
2023-03-28T09:01:37.727Z,2.74
2023-03-28T09:02:41.510Z,2.70
2023-03-28T09:03:45.005Z,2.67
2023-03-28T09:04:51.865Z,2.63
2023-03-28T09:06:16.327Z,2.60
2023-03-28T09:07:32.789Z,2.56
2023-03-28T09:09:00.984Z,2.53
2023-03-28T09:10:28.000Z,2.46
2023-03-28T09:11:58.004Z,2.46
2023-03-28T09:13:11.810Z,2.57
2023-03-28T09:14:35.065Z,2.68
2023-03-28T09:15:51.183Z,2.75
2023-03-28T09:16:54.904Z,2.80
2023-03-28T09:18:09.819Z,2.86
2023-03-28T09:19:15.515Z,2.90
2023-03-28T09:20:36.484Z,2.95
2023-03-28T09:22:15.933Z,3.03
2023-03-28T09:24:08.726Z,3.14
2023-03-28T09:25:20.736Z,3.28
2023-03-28T09:26:34.804Z,3.43
2023-03-28T09:27:52.443Z,3.56
2023-03-28T09:29:11.369Z,3.64
2023-03-28T09:30:23.484Z,3.74
2023-03-28T09:31:40.928Z,3.79
2023-03-28T09:32:45.374Z,3.84
2023-03-28T09:33:50.423Z,3.85
2023-03-28T09:35:01.971Z,3.83
2023-03-28T09:36:21.428Z,3.75
2023-03-28T09:37:30.613Z,3.55
2023-03-28T09:38:43.448Z,3.40
2023-03-28T09:40:04.094Z,3.26
2023-03-28T09:41:42.806Z,3.13
2023-03-28T09:43:18.127Z,2.98
2023-03-28T09:44:53.498Z,2.92
2023-03-28T09:46:28.155Z,2.90
2023-03-28T09:47:43.183Z,2.93
2023-03-28T09:48:48.336Z,2.96
2023-03-28T09:50:02.146Z,2.98
2023-03-28T09:51:16.960Z,2.97
2023-03-28T09:52:21.783Z,2.92
2023-03-28T09:53:27.843Z,2.87
2023-03-28T09:54:35.249Z,2.85
2023-03-28T09:55:38.819Z,2.80
2023-03-28T09:56:44.847Z,2.77
2023-03-28T09:58:11.276Z,2.77
2023-03-28T09:59:35.231Z,2.82
2023-03-28T10:00:50.800Z,2.81
2023-03-28T10:02:33.656Z,2.76
2023-03-28T10:03:39.796Z,2.73
2023-03-28T10:04:44.853Z,2.67
2023-03-28T10:05:51.702Z,2.67
2023-03-28T10:07:08.953Z,2.68
2023-03-28T10:08:27.089Z,2.72
2023-03-28T10:09:50.899Z,2.72
2023-03-28T10:11:02.451Z,2.70
2023-03-28T10:12:10.550Z,2.67
2023-03-28T10:13:18.120Z,2.60
2023-03-28T10:14:38.937Z,2.51
2023-03-28T10:15:48.392Z,2.47
2023-03-28T10:16:52.253Z,2.39
2023-03-28T10:18:18.780Z,2.26
2023-03-28T10:19:26.447Z,2.21
2023-03-28T10:20:52.629Z,2.28
2023-03-28T10:21:56.276Z,2.42
2023-03-28T10:23:04.555Z,2.57
2023-03-28T10:24:15.646Z,2.72
2023-03-28T10:25:36.970Z,2.86
2023-03-28T10:26:40.174Z,3.04
2023-03-28T10:27:44.598Z,3.21
2023-03-28T10:28:50.434Z,3.38
2023-03-28T10:29:56.567Z,3.51
2023-03-28T10:31:02.859Z,3.62
2023-03-28T10:32:13.289Z,3.68
2023-03-28T10:33:25.487Z,3.67
2023-03-28T10:35:00.456Z,3.51
2023-03-28T10:36:25.538Z,3.34
2023-03-28T10:37:32.919Z,3.20
2023-03-28T10:38:56.197Z,3.10
2023-03-28T10:40:19.898Z,3.07
2023-03-28T10:42:11.809Z,3.08
2023-03-28T10:43:47.221Z,3.17
2023-03-28T10:45:02.687Z,3.31
2023-03-28T10:46:32.881Z,3.50
2023-03-28T10:48:02.618Z,3.79
2023-03-28T10:49:13.661Z,3.93
2023-03-28T10:50:38.134Z,3.90
2023-03-28T10:51:44.264Z,3.60
2023-03-28T10:53:18.933Z,3.28
2023-03-28T10:54:43.213Z,2.89
2023-03-28T10:56:18.638Z,2.60
2023-03-28T10:57:45.461Z,2.49
2023-03-28T10:59:10.359Z,2.55
2023-03-28T11:00:42.568Z,2.71
2023-03-28T11:01:54.657Z,2.95
2023-03-28T11:03:39.378Z,3.13
2023-03-28T11:05:13.600Z,3.37
2023-03-28T11:06:22.842Z,3.56
2023-03-28T11:07:43.150Z,3.71
2023-03-28T11:09:31.756Z,3.95
2023-03-28T11:11:19.748Z,4.09
2023-03-28T11:14:21.840Z,4.04
2023-03-28T11:14:47.818Z,3.88
2023-03-28T11:16:08.014Z,3.75
2023-03-28T11:17:34.135Z,3.66
2023-03-28T11:19:17.908Z,3.59
2023-03-28T11:20:30.259Z,3.39
2023-03-28T11:22:15.921Z,3.26
2023-03-28T11:23:38.633Z,3.04
2023-03-28T11:25:38.272Z,2.92
2023-03-28T11:27:16.157Z,3.09
2023-03-28T11:28:52.897Z,3.24
2023-03-28T11:30:09.742Z,3.35
2023-03-28T11:31:22.408Z,3.38
2023-03-28T11:32:53.473Z,3.36
2023-03-28T11:34:03.156Z,3.29
2023-03-28T11:35:18.699Z,3.23
2023-03-28T11:36:37.330Z,3.20
2023-03-28T11:38:04.623Z,3.19
2023-03-28T11:39:42.785Z,3.23
2023-03-28T11:41:11.213Z,3.42
2023-03-28T11:42:51.827Z,3.70
2023-03-28T11:43:57.435Z,3.95
2023-03-28T11:45:07.970Z,4.16
2023-03-28T11:46:14.969Z,4.32
2023-03-28T11:47:32.666Z,4.38
2023-03-28T11:49:07.765Z,4.43
2023-03-28T11:50:18.803Z,4.48
2023-03-28T11:51:52.815Z,4.39
2023-03-28T11:53:02.110Z,4.28
2023-03-28T11:54:29.293Z,4.21
2023-03-28T11:55:44.837Z,4.23
2023-03-28T11:57:18.331Z,4.38
2023-03-28T11:58:33.162Z,4.64
2023-03-28T11:59:43.985Z,4.85
2023-03-28T12:01:00.901Z,5.02
2023-03-28T12:02:14.520Z,5.09
2023-03-28T12:03:30.489Z,5.10
2023-03-28T12:04:43.052Z,5.12
2023-03-28T12:06:00.010Z,5.14
2023-03-28T12:07:27.179Z,5.10
2023-03-28T12:08:48.424Z,5.02
2023-03-28T12:10:09.527Z,4.86
2023-03-28T12:11:21.869Z,4.70
2023-03-28T12:12:51.700Z,4.54
2023-03-28T12:14:12.486Z,4.39
2023-03-28T12:15:29.020Z,4.33
2023-03-28T12:16:49.766Z,4.38
2023-03-28T12:18:03.292Z,4.46
2023-03-28T12:19:11.596Z,4.55
2023-03-28T12:20:32.881Z,4.60
2023-03-28T12:21:46.045Z,4.68
2023-03-28T12:22:57.983Z,4.68
2023-03-28T12:24:59.773Z,4.61
2023-03-28T12:26:13.422Z,4.38
2023-03-28T12:27:19.742Z,4.17
2023-03-28T12:28:33.320Z,4.04
2023-03-28T12:29:57.289Z,3.88
2023-03-28T12:31:19.168Z,3.64
2023-03-28T12:32:56.701Z,3.46
2023-03-28T12:34:09.816Z,3.24
2023-03-28T12:35:55.349Z,3.04
2023-03-28T12:37:32.307Z,2.93
2023-03-28T12:38:44.632Z,2.74
2023-03-28T12:40:24.619Z,2.65
2023-03-28T12:41:40.319Z,2.61
2023-03-28T12:42:45.922Z,2.60
2023-03-28T12:44:15.127Z,2.53
2023-03-28T12:45:41.939Z,2.46
2023-03-28T12:46:53.584Z,2.57
2023-03-28T12:48:08.270Z,2.80
2023-03-28T12:49:35.774Z,3.17
2023-03-28T12:50:56.876Z,3.64
2023-03-28T12:52:03.917Z,4.06
2023-03-28T12:53:11.623Z,4.38
2023-03-28T12:54:16.307Z,4.62
2023-03-28T12:55:26.091Z,4.74
2023-03-28T12:56:31.857Z,4.73
2023-03-28T12:57:40.554Z,4.64
2023-03-28T12:58:53.171Z,4.50
2023-03-28T13:00:17.477Z,4.56
2023-03-28T13:01:49.454Z,4.85
2023-03-28T13:03:45.788Z,5.24
2023-03-28T13:05:00.728Z,5.60
2023-03-28T13:06:19.327Z,5.76
2023-03-28T13:07:47.850Z,5.86
2023-03-28T13:09:08.524Z,5.96
2023-03-28T13:10:31.405Z,6.04
2023-03-28T13:11:34.259Z,6.13
2023-03-28T13:12:52.207Z,6.17
2023-03-28T13:14:32.867Z,6.18
2023-03-28T13:15:54.124Z,6.02
2023-03-28T13:17:17.671Z,5.85
2023-03-28T13:18:20.448Z,5.62
2023-03-28T13:19:41.979Z,5.45
2023-03-28T13:20:47.105Z,5.28
2023-03-28T13:21:56.374Z,5.12
2023-03-28T13:23:06.657Z,4.97
2023-03-28T13:24:29.421Z,4.88
2023-03-28T13:25:35.158Z,4.80
2023-03-28T13:26:56.183Z,4.76
2023-03-28T13:28:12.819Z,4.75
2023-03-28T13:29:15.748Z,4.72
2023-03-28T13:30:28.859Z,4.72
2023-03-28T13:31:33.032Z,4.70
2023-03-28T13:32:42.964Z,4.60
2023-03-28T13:33:49.377Z,4.49
2023-03-28T13:34:57.867Z,4.43
2023-03-28T13:36:03.987Z,4.24
2023-03-28T13:37:23.374Z,4.08
2023-03-28T13:38:30.547Z,3.83
2023-03-28T13:39:33.488Z,3.72
2023-03-28T13:40:56.214Z,3.58
2023-03-28T13:41:59.989Z,3.44
2023-03-28T13:43:02.794Z,3.35
2023-03-28T13:44:12.499Z,3.32
2023-03-28T13:45:25.551Z,3.19
2023-03-28T13:47:04.982Z,3.10
2023-03-28T13:48:13.525Z,3.10
2023-03-28T13:49:29.195Z,3.14
2023-03-28T13:50:37.833Z,3.06
2023-03-28T13:52:08.758Z,2.98
2023-03-28T13:53:11.697Z,2.96
2023-03-28T13:54:15.352Z,2.92
2023-03-28T13:55:24.772Z,2.90
2023-03-28T13:56:34.663Z,2.90
2023-03-28T13:57:37.787Z,2.88
2023-03-28T13:58:41.881Z,2.84
2023-03-28T13:59:52.601Z,2.81
2023-03-28T14:01:07.901Z,2.78
2023-03-28T14:02:21.469Z,2.73
2023-03-28T14:03:26.804Z,2.68
2023-03-28T14:04:33.146Z,2.61
2023-03-28T14:05:44.319Z,2.57
2023-03-28T14:06:48.857Z,2.56
2023-03-28T14:07:54.181Z,2.52
2023-03-28T14:09:00.405Z,2.47
2023-03-28T14:10:40.227Z,2.48
2023-03-28T14:11:44.135Z,2.40
2023-03-28T14:12:47.910Z,2.33
2023-03-28T14:14:02.871Z,2.29
2023-03-28T14:15:09.935Z,2.23
2023-03-28T14:16:13.182Z,2.18
2023-03-28T14:17:23.492Z,2.16
2023-03-28T14:18:39.887Z,2.18
2023-03-28T14:19:47.247Z,2.25
2023-03-28T14:20:50.597Z,2.34
2023-03-28T14:21:53.923Z,2.43
2023-03-28T14:23:01.041Z,2.49
2023-03-28T14:24:07.076Z,2.53
2023-03-28T14:25:14.592Z,2.58
2023-03-28T14:26:22.237Z,2.60
2023-03-28T14:27:38.075Z,2.63
2023-03-28T14:28:41.683Z,2.66
2023-03-28T14:29:59.616Z,2.72
2023-03-28T14:31:03.336Z,2.80
2023-03-28T14:32:21.947Z,2.93
2023-03-28T14:33:25.433Z,3.03
2023-03-28T14:34:35.373Z,3.10
2023-03-28T14:35:42.498Z,3.20
2023-03-28T14:37:01.132Z,3.34
2023-03-28T14:38:14.051Z,3.37
2023-03-28T14:39:18.490Z,3.38
2023-03-28T14:40:24.573Z,3.42
2023-03-28T14:41:29.467Z,3.46
2023-03-28T14:42:33.382Z,3.51
2023-03-28T14:43:37.181Z,3.54
2023-03-28T14:44:43.409Z,3.47
2023-03-28T14:45:51.903Z,3.43
2023-03-28T14:46:59.901Z,3.40
2023-03-28T14:48:06.208Z,3.40
2023-03-28T14:49:18.344Z,3.42
2023-03-28T14:50:22.347Z,3.44
2023-03-28T14:51:25.494Z,3.44
2023-03-28T14:52:30.775Z,3.47
2023-03-28T14:53:40.607Z,3.51
2023-03-28T14:54:48.130Z,3.53
2023-03-28T14:55:54.556Z,3.47
2023-03-28T14:56:59.120Z,3.40
2023-03-28T14:58:04.775Z,3.36
2023-03-28T14:59:11.727Z,3.33
2023-03-28T15:00:20.342Z,3.31
2023-03-28T15:01:24.520Z,3.27
2023-03-28T15:02:40.910Z,3.23
2023-03-28T15:03:48.061Z,3.20
2023-03-28T15:04:52.546Z,3.16
2023-03-28T15:05:57.766Z,3.12
2023-03-28T15:07:01.167Z,3.11
2023-03-28T15:08:06.284Z,3.06
2023-03-28T15:09:26.424Z,2.98
2023-03-28T15:10:30.906Z,2.97
2023-03-28T15:11:37.940Z,2.89
2023-03-28T15:12:48.635Z,2.81
2023-03-28T15:13:59.458Z,2.73
2023-03-28T15:15:04.106Z,2.67
2023-03-28T15:16:08.820Z,2.63
2023-03-28T15:17:19.271Z,2.57
2023-03-28T15:18:28.696Z,2.51
2023-03-28T15:19:41.605Z,2.47
2023-03-28T15:20:51.434Z,2.41
2023-03-28T15:22:05.311Z,2.37
2023-03-28T15:23:17.471Z,2.34
2023-03-28T15:24:21.281Z,2.31
2023-03-28T15:25:25.532Z,2.32
2023-03-28T15:26:38.427Z,2.30
2023-03-28T15:27:46.431Z,2.27
2023-03-28T15:28:49.380Z,2.24
2023-03-28T15:29:52.700Z,2.22
2023-03-28T15:31:00.817Z,2.19
2023-03-28T15:32:07.473Z,2.16
2023-03-28T15:33:20.462Z,2.14
2023-03-28T15:34:28.935Z,2.14
2023-03-28T15:35:40.669Z,2.14
2023-03-28T15:37:06.926Z,2.14
2023-03-28T15:38:12.596Z,2.11
2023-03-28T15:39:24.223Z,2.10
2023-03-28T15:40:35.995Z,2.10
2023-03-28T15:41:42.044Z,2.10
2023-03-28T15:42:51.176Z,2.10
2023-03-28T15:43:54.281Z,2.10
2023-03-28T15:44:57.383Z,2.08
2023-03-28T15:46:02.575Z,2.05
2023-03-28T15:47:12.211Z,2.04
2023-03-28T15:48:19.921Z,2.02
2023-03-28T15:49:24.008Z,2.00
2023-03-28T15:50:38.661Z,2.00
2023-03-28T15:51:54.040Z,2.00
2023-03-28T15:52:59.506Z,2.01
2023-03-28T15:54:02.573Z,2.02
2023-03-28T15:55:06.365Z,2.02
2023-03-28T15:56:27.760Z,2.08
2023-03-28T15:57:32.318Z,2.03
2023-03-28T15:58:42.068Z,1.99
2023-03-28T15:59:48.588Z,2.00
2023-03-28T16:00:53.613Z,2.02
2023-03-28T16:02:19.639Z,2.00
2023-03-28T16:03:23.865Z,1.98